sensor_id;sensor_type;location;lat;lon;timestamp;temperature;humidity
1880;DHT22;49285;49.002;8.390;2022-12-18T00:02:01;-3.60;99.90
1880;DHT22;49285;49.002;8.390;2022-12-18T00:04:27;-3.60;99.90
1880;DHT22;49285;49.002;8.390;2022-12-18T00:06:53;-3.60;99.90
1880;DHT22;49285;49.002;8.390;2022-12-18T00:09:19;-3.60;99.90
1880;DHT22;49285;49.002;8.390;2022-12-18T00:11:44;-3.70;99.90
1880;DHT22;49285;49.002;8.390;2022-12-18T00:14:11;-3.70;99.90
1880;DHT22;49285;49.002;8.390;2022-12-18T00:16:37;-3.70;99.90
1880;DHT22;49285;49.002;8.390;2022-12-18T00:19:03;-3.70;99.90
1880;DHT22;49285;49.002;8.390;2022-12-18T00:21:31;-3.80;99.90
1880;DHT22;49285;49.002;8.390;2022-12-18T00:23:57;-3.90;99.90
1880;DHT22;49285;49.002;8.390;2022-12-18T00:26:26;-3.90;99.90
1880;DHT22;49285;49.002;8.390;2022-12-18T00:28:52;-4.00;99.90
1880;DHT22;49285;49.002;8.390;2022-12-18T00:31:20;-4.10;99.90
1880;DHT22;49285;49.002;8.390;2022-12-18T00:33:46;-4.10;99.90
1880;DHT22;49285;49.002;8.390;2022-12-18T00:36:15;-4.20;99.90
1880;DHT22;49285;49.002;8.390;2022-12-18T00:38:41;-4.30;99.90
1880;DHT22;49285;49.002;8.390;2022-12-18T00:41:08;-4.40;99.90
1880;DHT22;49285;49.002;8.390;2022-12-18T00:43:34;-4.60;99.90
1880;DHT22;49285;49.002;8.390;2022-12-18T00:46:00;-4.50;99.90
1880;DHT22;49285;49.002;8.390;2022-12-18T00:48:26;-4.50;99.90
1880;DHT22;49285;49.002;8.390;2022-12-18T00:50:51;-4.60;99.90
1880;DHT22;49285;49.002;8.390;2022-12-18T00:53:17;-4.60;99.90
1880;DHT22;49285;49.002;8.390;2022-12-18T00:55:43;-4.60;99.90
1880;DHT22;49285;49.002;8.390;2022-12-18T00:58:10;-4.60;99.90
1880;DHT22;49285;49.002;8.390;2022-12-18T01:00:36;-4.50;99.90
1880;DHT22;49285;49.002;8.390;2022-12-18T01:03:03;-4.60;99.90
1880;DHT22;49285;49.002;8.390;2022-12-18T01:05:29;-4.50;99.90
1880;DHT22;49285;49.002;8.390;2022-12-18T01:07:55;-4.40;99.90
1880;DHT22;49285;49.002;8.390;2022-12-18T01:10:21;-4.40;99.90
1880;DHT22;49285;49.002;8.390;2022-12-18T01:12:47;-4.30;99.90
1880;DHT22;49285;49.002;8.390;2022-12-18T01:15:14;-4.40;99.90
1880;DHT22;49285;49.002;8.390;2022-12-18T01:17:42;-4.50;99.90
1880;DHT22;49285;49.002;8.390;2022-12-18T01:20:09;-4.40;99.90
1880;DHT22;49285;49.002;8.390;2022-12-18T01:22:35;-4.30;99.90
1880;DHT22;49285;49.002;8.390;2022-12-18T01:25:01;-4.30;99.90
1880;DHT22;49285;49.002;8.390;2022-12-18T01:27:27;-4.60;99.90
1880;DHT22;49285;49.002;8.390;2022-12-18T01:29:53;-4.60;99.90
1880;DHT22;49285;49.002;8.390;2022-12-18T01:32:18;-4.60;99.90
1880;DHT22;49285;49.002;8.390;2022-12-18T01:34:44;-4.70;99.90
1880;DHT22;49285;49.002;8.390;2022-12-18T01:37:09;-4.60;99.90
1880;DHT22;49285;49.002;8.390;2022-12-18T01:39:36;-4.50;99.90
1880;DHT22;49285;49.002;8.390;2022-12-18T01:42:11;-4.50;99.90
1880;DHT22;49285;49.002;8.390;2022-12-18T01:45:04;-4.50;99.90
1880;DHT22;49285;49.002;8.390;2022-12-18T01:50:39;-4.60;99.90
1880;DHT22;49285;49.002;8.390;2022-12-18T01:53:15;-4.70;99.90
1880;DHT22;49285;49.002;8.390;2022-12-18T01:55:56;-4.50;99.90
1880;DHT22;49285;49.002;8.390;2022-12-18T01:59:10;-4.50;99.90
1880;DHT22;49285;49.002;8.390;2022-12-18T02:01:16;-4.60;99.90
1880;DHT22;49285;49.002;8.390;2022-12-18T02:03:43;-4.60;99.90
1880;DHT22;49285;49.002;8.390;2022-12-18T02:08:50;-4.60;99.90
1880;DHT22;49285;49.002;8.390;2022-12-18T02:16:43;-4.60;99.90
1880;DHT22;49285;49.002;8.390;2022-12-18T02:19:44;-4.60;99.90
1880;DHT22;49285;49.002;8.390;2022-12-18T02:27:45;-4.60;99.90
1880;DHT22;49285;49.002;8.390;2022-12-18T02:30:12;-4.60;99.90
1880;DHT22;49285;49.002;8.390;2022-12-18T02:32:42;-4.50;99.90
1880;DHT22;49285;49.002;8.390;2022-12-18T02:35:15;-4.70;99.90
1880;DHT22;49285;49.002;8.390;2022-12-18T02:37:43;-4.60;99.90
1880;DHT22;49285;49.002;8.390;2022-12-18T02:40:11;-4.60;99.90
1880;DHT22;49285;49.002;8.390;2022-12-18T02:42:37;-4.60;99.90
1880;DHT22;49285;49.002;8.390;2022-12-18T02:45:03;-4.70;99.90
1880;DHT22;49285;49.002;8.390;2022-12-18T02:47:32;-4.70;99.90
1880;DHT22;49285;49.002;8.390;2022-12-18T02:50:45;-4.60;99.90
1880;DHT22;49285;49.002;8.390;2022-12-18T02:53:24;-4.50;99.90
1880;DHT22;49285;49.002;8.390;2022-12-18T02:56:15;-4.50;99.90
1880;DHT22;49285;49.002;8.390;2022-12-18T02:58:56;-4.60;99.90
1880;DHT22;49285;49.002;8.390;2022-12-18T03:04:01;-4.40;99.90
1880;DHT22;49285;49.002;8.390;2022-12-18T03:06:37;-4.40;99.90
1880;DHT22;49285;49.002;8.390;2022-12-18T03:09:08;-4.30;99.90
1880;DHT22;49285;49.002;8.390;2022-12-18T03:11:37;-4.30;99.90
1880;DHT22;49285;49.002;8.390;2022-12-18T03:14:25;-4.30;99.90
1880;DHT22;49285;49.002;8.390;2022-12-18T03:16:54;-4.40;99.90
1880;DHT22;49285;49.002;8.390;2022-12-18T03:19:27;-4.40;99.90
1880;DHT22;49285;49.002;8.390;2022-12-18T03:21:55;-4.50;99.90
1880;DHT22;49285;49.002;8.390;2022-12-18T03:24:22;-4.40;99.90
1880;DHT22;49285;49.002;8.390;2022-12-18T03:26:53;-4.30;99.90
1880;DHT22;49285;49.002;8.390;2022-12-18T03:29:25;-4.40;99.90
1880;DHT22;49285;49.002;8.390;2022-12-18T03:31:55;-4.40;99.90
1880;DHT22;49285;49.002;8.390;2022-12-18T03:34:28;-4.40;99.90
1880;DHT22;49285;49.002;8.390;2022-12-18T03:36:55;-4.50;99.90
1880;DHT22;49285;49.002;8.390;2022-12-18T03:39:21;-4.50;99.90
1880;DHT22;49285;49.002;8.390;2022-12-18T03:42:15;-4.50;99.90
1880;DHT22;49285;49.002;8.390;2022-12-18T03:44:44;-4.60;99.90
1880;DHT22;49285;49.002;8.390;2022-12-18T03:50:18;-4.70;99.90
1880;DHT22;49285;49.002;8.390;2022-12-18T03:55:14;-4.60;99.90
1880;DHT22;49285;49.002;8.390;2022-12-18T03:57:41;-4.70;99.90
1880;DHT22;49285;49.002;8.390;2022-12-18T04:00:12;-4.90;99.90
1880;DHT22;49285;49.002;8.390;2022-12-18T04:02:42;-4.80;99.90
1880;DHT22;49285;49.002;8.390;2022-12-18T04:05:10;-4.80;99.90
1880;DHT22;49285;49.002;8.390;2022-12-18T04:07:36;-4.90;99.90
1880;DHT22;49285;49.002;8.390;2022-12-18T04:10:04;-4.80;99.90
1880;DHT22;49285;49.002;8.390;2022-12-18T04:12:31;-4.80;99.90
1880;DHT22;49285;49.002;8.390;2022-12-18T04:14:57;-4.70;99.90
1880;DHT22;49285;49.002;8.390;2022-12-18T04:17:22;-4.70;99.90
1880;DHT22;49285;49.002;8.390;2022-12-18T04:19:49;-4.80;99.90
1880;DHT22;49285;49.002;8.390;2022-12-18T04:22:15;-4.70;99.90
1880;DHT22;49285;49.002;8.390;2022-12-18T04:24:40;-4.70;99.90
1880;DHT22;49285;49.002;8.390;2022-12-18T04:27:06;-4.90;99.90
1880;DHT22;49285;49.002;8.390;2022-12-18T04:29:32;-5.00;99.90
1880;DHT22;49285;49.002;8.390;2022-12-18T04:31:57;-5.10;99.90
1880;DHT22;49285;49.002;8.390;2022-12-18T04:34:23;-5.20;99.90
1880;DHT22;49285;49.002;8.390;2022-12-18T04:36:48;-5.20;99.90
1880;DHT22;49285;49.002;8.390;2022-12-18T04:39:17;-5.20;99.90
1880;DHT22;49285;49.002;8.390;2022-12-18T04:41:43;-5.10;99.90
1880;DHT22;49285;49.002;8.390;2022-12-18T04:44:09;-5.10;99.90
1880;DHT22;49285;49.002;8.390;2022-12-18T04:46:34;-5.10;99.90
1880;DHT22;49285;49.002;8.390;2022-12-18T04:49:00;-5.20;99.90
1880;DHT22;49285;49.002;8.390;2022-12-18T04:51:25;-5.10;99.90
1880;DHT22;49285;49.002;8.390;2022-12-18T04:53:51;-5.10;99.90
1880;DHT22;49285;49.002;8.390;2022-12-18T04:56:16;-5.30;99.90
1880;DHT22;49285;49.002;8.390;2022-12-18T04:58:43;-5.50;99.90
1880;DHT22;49285;49.002;8.390;2022-12-18T05:01:10;-5.30;99.90
1880;DHT22;49285;49.002;8.390;2022-12-18T05:03:36;-5.20;99.90
1880;DHT22;49285;49.002;8.390;2022-12-18T05:06:03;-5.20;99.90
1880;DHT22;49285;49.002;8.390;2022-12-18T05:08:28;-5.20;99.90
1880;DHT22;49285;49.002;8.390;2022-12-18T05:11:01;-5.20;99.90
1880;DHT22;49285;49.002;8.390;2022-12-18T05:13:28;-5.20;99.90
1880;DHT22;49285;49.002;8.390;2022-12-18T05:15:54;-5.30;99.90
1880;DHT22;49285;49.002;8.390;2022-12-18T05:18:21;-5.10;99.90
1880;DHT22;49285;49.002;8.390;2022-12-18T05:20:46;-5.00;99.90
1880;DHT22;49285;49.002;8.390;2022-12-18T05:23:12;-4.90;99.90
1880;DHT22;49285;49.002;8.390;2022-12-18T05:25:38;-4.80;99.90
1880;DHT22;49285;49.002;8.390;2022-12-18T05:28:04;-4.80;99.90
1880;DHT22;49285;49.002;8.390;2022-12-18T05:30:29;-4.80;99.90
1880;DHT22;49285;49.002;8.390;2022-12-18T05:32:55;-4.90;99.90
1880;DHT22;49285;49.002;8.390;2022-12-18T05:35:20;-4.80;99.90
1880;DHT22;49285;49.002;8.390;2022-12-18T05:37:46;-4.70;99.90
1880;DHT22;49285;49.002;8.390;2022-12-18T05:40:12;-4.80;99.90
1880;DHT22;49285;49.002;8.390;2022-12-18T05:42:37;-4.80;99.90
1880;DHT22;49285;49.002;8.390;2022-12-18T05:45:04;-4.80;99.90
1880;DHT22;49285;49.002;8.390;2022-12-18T05:47:30;-4.70;99.90
1880;DHT22;49285;49.002;8.390;2022-12-18T05:49:55;-4.60;99.90
1880;DHT22;49285;49.002;8.390;2022-12-18T05:52:21;-4.50;99.90
1880;DHT22;49285;49.002;8.390;2022-12-18T05:54:46;-4.40;99.90
1880;DHT22;49285;49.002;8.390;2022-12-18T05:57:12;-4.30;99.90
1880;DHT22;49285;49.002;8.390;2022-12-18T05:59:38;-4.30;99.90
1880;DHT22;49285;49.002;8.390;2022-12-18T06:02:03;-4.30;99.90
1880;DHT22;49285;49.002;8.390;2022-12-18T06:04:29;-4.40;99.90
1880;DHT22;49285;49.002;8.390;2022-12-18T06:06:54;-4.30;99.90
1880;DHT22;49285;49.002;8.390;2022-12-18T06:09:20;-4.20;99.90
1880;DHT22;49285;49.002;8.390;2022-12-18T06:11:45;-4.30;99.90
1880;DHT22;49285;49.002;8.390;2022-12-18T06:14:11;-4.30;99.90
1880;DHT22;49285;49.002;8.390;2022-12-18T06:16:36;-4.40;99.90
1880;DHT22;49285;49.002;8.390;2022-12-18T06:19:04;-4.30;99.90
1880;DHT22;49285;49.002;8.390;2022-12-18T06:21:31;-4.20;99.90
1880;DHT22;49285;49.002;8.390;2022-12-18T06:23:57;-4.30;99.90
1880;DHT22;49285;49.002;8.390;2022-12-18T06:26:23;-4.20;99.90
1880;DHT22;49285;49.002;8.390;2022-12-18T06:28:49;-4.40;99.90
1880;DHT22;49285;49.002;8.390;2022-12-18T06:31:15;-4.30;99.90
1880;DHT22;49285;49.002;8.390;2022-12-18T06:33:41;-4.10;99.90
1880;DHT22;49285;49.002;8.390;2022-12-18T06:36:09;-4.00;99.90
1880;DHT22;49285;49.002;8.390;2022-12-18T06:38:36;-4.20;99.90
1880;DHT22;49285;49.002;8.390;2022-12-18T06:41:10;-4.20;99.90
1880;DHT22;49285;49.002;8.390;2022-12-18T06:43:36;-4.10;99.90
1880;DHT22;49285;49.002;8.390;2022-12-18T06:46:03;-4.20;99.90
1880;DHT22;49285;49.002;8.390;2022-12-18T06:48:29;-4.30;99.90
1880;DHT22;49285;49.002;8.390;2022-12-18T06:50:55;-4.30;99.90
1880;DHT22;49285;49.002;8.390;2022-12-18T06:53:21;-4.20;99.90
1880;DHT22;49285;49.002;8.390;2022-12-18T06:55:46;-4.20;99.90
1880;DHT22;49285;49.002;8.390;2022-12-18T06:58:12;-4.10;99.90
1880;DHT22;49285;49.002;8.390;2022-12-18T07:00:37;-4.20;99.90
1880;DHT22;49285;49.002;8.390;2022-12-18T07:03:03;-4.00;99.90
1880;DHT22;49285;49.002;8.390;2022-12-18T07:05:29;-3.90;99.90
1880;DHT22;49285;49.002;8.390;2022-12-18T07:07:54;-4.10;99.90
1880;DHT22;49285;49.002;8.390;2022-12-18T07:10:20;-4.30;99.90
1880;DHT22;49285;49.002;8.390;2022-12-18T07:12:45;-4.20;99.90
1880;DHT22;49285;49.002;8.390;2022-12-18T07:15:11;-4.10;99.90
1880;DHT22;49285;49.002;8.390;2022-12-18T07:17:37;-4.10;99.90
1880;DHT22;49285;49.002;8.390;2022-12-18T07:20:02;-3.90;99.90
1880;DHT22;49285;49.002;8.390;2022-12-18T07:22:28;-3.80;99.90
1880;DHT22;49285;49.002;8.390;2022-12-18T07:24:54;-3.80;99.90
1880;DHT22;49285;49.002;8.390;2022-12-18T07:27:20;-3.90;99.90
1880;DHT22;49285;49.002;8.390;2022-12-18T07:29:46;-4.10;99.90
1880;DHT22;49285;49.002;8.390;2022-12-18T07:32:11;-4.10;99.90
1880;DHT22;49285;49.002;8.390;2022-12-18T07:34:37;-4.00;99.90
1880;DHT22;49285;49.002;8.390;2022-12-18T07:37:02;-3.90;99.90
1880;DHT22;49285;49.002;8.390;2022-12-18T07:39:28;-4.00;99.90
1880;DHT22;49285;49.002;8.390;2022-12-18T07:41:54;-4.20;99.90
1880;DHT22;49285;49.002;8.390;2022-12-18T07:44:37;-4.10;99.90
1880;DHT22;49285;49.002;8.390;2022-12-18T07:47:03;-3.90;99.90
1880;DHT22;49285;49.002;8.390;2022-12-18T07:49:29;-3.90;99.90
1880;DHT22;49285;49.002;8.390;2022-12-18T07:51:55;-3.80;99.90
1880;DHT22;49285;49.002;8.390;2022-12-18T07:54:22;-3.80;99.90
1880;DHT22;49285;49.002;8.390;2022-12-18T07:56:47;-3.80;99.90
1880;DHT22;49285;49.002;8.390;2022-12-18T07:59:13;-3.80;99.90
1880;DHT22;49285;49.002;8.390;2022-12-18T08:01:38;-3.70;99.90
1880;DHT22;49285;49.002;8.390;2022-12-18T08:04:04;-3.60;99.90
1880;DHT22;49285;49.002;8.390;2022-12-18T08:06:29;-3.60;99.90
1880;DHT22;49285;49.002;8.390;2022-12-18T08:08:55;-3.60;99.90
1880;DHT22;49285;49.002;8.390;2022-12-18T08:11:23;-3.50;99.90
1880;DHT22;49285;49.002;8.390;2022-12-18T08:13:49;-3.50;99.90
1880;DHT22;49285;49.002;8.390;2022-12-18T08:16:14;-3.50;99.90
1880;DHT22;49285;49.002;8.390;2022-12-18T08:18:40;-3.40;99.90
1880;DHT22;49285;49.002;8.390;2022-12-18T08:21:20;-3.50;99.90
1880;DHT22;49285;49.002;8.390;2022-12-18T08:23:48;-3.40;99.90
1880;DHT22;49285;49.002;8.390;2022-12-18T08:26:14;-3.50;99.90
1880;DHT22;49285;49.002;8.390;2022-12-18T08:28:40;-3.40;99.90
1880;DHT22;49285;49.002;8.390;2022-12-18T08:31:06;-3.30;99.90
1880;DHT22;49285;49.002;8.390;2022-12-18T08:33:32;-3.20;99.90
1880;DHT22;49285;49.002;8.390;2022-12-18T08:35:59;-3.20;99.90
1880;DHT22;49285;49.002;8.390;2022-12-18T08:38:25;-3.20;99.90
1880;DHT22;49285;49.002;8.390;2022-12-18T08:40:58;-3.10;99.90
1880;DHT22;49285;49.002;8.390;2022-12-18T08:43:24;-3.10;99.90
1880;DHT22;49285;49.002;8.390;2022-12-18T08:46:08;-3.10;99.90
1880;DHT22;49285;49.002;8.390;2022-12-18T08:48:34;-3.00;99.90
1880;DHT22;49285;49.002;8.390;2022-12-18T08:51:00;-3.00;99.90
1880;DHT22;49285;49.002;8.390;2022-12-18T08:53:26;-3.00;99.90
1880;DHT22;49285;49.002;8.390;2022-12-18T08:55:52;-3.00;99.90
1880;DHT22;49285;49.002;8.390;2022-12-18T08:58:19;-3.20;99.90
1880;DHT22;49285;49.002;8.390;2022-12-18T09:00:45;-3.10;99.90
1880;DHT22;49285;49.002;8.390;2022-12-18T09:03:12;-3.00;99.90
1880;DHT22;49285;49.002;8.390;2022-12-18T09:05:38;-3.10;99.90
1880;DHT22;49285;49.002;8.390;2022-12-18T09:08:03;-3.10;99.90
1880;DHT22;49285;49.002;8.390;2022-12-18T09:10:29;-3.00;99.90
1880;DHT22;49285;49.002;8.390;2022-12-18T09:12:54;-2.90;99.90
1880;DHT22;49285;49.002;8.390;2022-12-18T09:15:21;-2.90;99.90
1880;DHT22;49285;49.002;8.390;2022-12-18T09:17:47;-2.80;99.90
1880;DHT22;49285;49.002;8.390;2022-12-18T09:20:13;-2.70;99.90
1880;DHT22;49285;49.002;8.390;2022-12-18T09:22:39;-2.60;99.90
1880;DHT22;49285;49.002;8.390;2022-12-18T09:25:04;-2.70;99.90
1880;DHT22;49285;49.002;8.390;2022-12-18T09:27:33;-2.80;99.90
1880;DHT22;49285;49.002;8.390;2022-12-18T09:29:59;-2.80;99.90
1880;DHT22;49285;49.002;8.390;2022-12-18T09:32:25;-2.90;99.90
1880;DHT22;49285;49.002;8.390;2022-12-18T09:34:50;-2.70;99.90
1880;DHT22;49285;49.002;8.390;2022-12-18T09:37:16;-2.60;99.90
1880;DHT22;49285;49.002;8.390;2022-12-18T09:39:41;-2.50;99.90
1880;DHT22;49285;49.002;8.390;2022-12-18T09:42:19;-2.50;99.90
1880;DHT22;49285;49.002;8.390;2022-12-18T09:44:50;-2.40;99.90
1880;DHT22;49285;49.002;8.390;2022-12-18T09:47:17;-2.30;99.90
1880;DHT22;49285;49.002;8.390;2022-12-18T09:49:49;-2.20;99.90
1880;DHT22;49285;49.002;8.390;2022-12-18T09:54:58;-2.00;99.90
1880;DHT22;49285;49.002;8.390;2022-12-18T09:57:25;-1.90;99.90
1880;DHT22;49285;49.002;8.390;2022-12-18T10:02:39;-2.10;99.90
1880;DHT22;49285;49.002;8.390;2022-12-18T10:05:21;-2.30;99.90
1880;DHT22;49285;49.002;8.390;2022-12-18T10:11:20;-2.10;99.90
1880;DHT22;49285;49.002;8.390;2022-12-18T10:13:45;-2.10;99.90
1880;DHT22;49285;49.002;8.390;2022-12-18T10:16:16;-2.20;99.90
1880;DHT22;49285;49.002;8.390;2022-12-18T10:21:40;-2.40;99.90
1880;DHT22;49285;49.002;8.390;2022-12-18T10:27:04;-2.40;99.90
1880;DHT22;49285;49.002;8.390;2022-12-18T10:29:34;-2.30;99.90
1880;DHT22;49285;49.002;8.390;2022-12-18T10:31:59;-2.10;99.90
1880;DHT22;49285;49.002;8.390;2022-12-18T10:34:25;-2.20;99.90
1880;DHT22;49285;49.002;8.390;2022-12-18T10:36:51;-2.10;99.90
1880;DHT22;49285;49.002;8.390;2022-12-18T10:39:23;-1.90;99.90
1880;DHT22;49285;49.002;8.390;2022-12-18T10:41:49;-2.00;99.90
1880;DHT22;49285;49.002;8.390;2022-12-18T10:44:19;-2.20;99.90
1880;DHT22;49285;49.002;8.390;2022-12-18T10:46:48;-2.30;99.90
1880;DHT22;49285;49.002;8.390;2022-12-18T10:49:33;-2.00;99.90
1880;DHT22;49285;49.002;8.390;2022-12-18T10:52:21;-2.10;99.90
1880;DHT22;49285;49.002;8.390;2022-12-18T10:54:55;-2.20;99.90
1880;DHT22;49285;49.002;8.390;2022-12-18T10:57:31;-2.10;99.90
1880;DHT22;49285;49.002;8.390;2022-12-18T10:59:58;-2.10;99.90
1880;DHT22;49285;49.002;8.390;2022-12-18T11:02:33;-2.20;99.90
1880;DHT22;49285;49.002;8.390;2022-12-18T11:04:59;-2.20;99.90
1880;DHT22;49285;49.002;8.390;2022-12-18T11:07:25;-2.10;99.90
1880;DHT22;49285;49.002;8.390;2022-12-18T11:10:01;-1.90;99.90
1880;DHT22;49285;49.002;8.390;2022-12-18T11:12:28;-1.80;99.90
1880;DHT22;49285;49.002;8.390;2022-12-18T11:14:55;-1.80;99.90
1880;DHT22;49285;49.002;8.390;2022-12-18T11:19:55;-2.00;99.90
1880;DHT22;49285;49.002;8.390;2022-12-18T11:22:26;-2.00;99.90
1880;DHT22;49285;49.002;8.390;2022-12-18T11:27:38;-1.80;99.90
1880;DHT22;49285;49.002;8.390;2022-12-18T11:30:13;-1.80;99.90
1880;DHT22;49285;49.002;8.390;2022-12-18T11:32:50;-1.80;99.90
1880;DHT22;49285;49.002;8.390;2022-12-18T11:35:32;-1.70;99.90
1880;DHT22;49285;49.002;8.390;2022-12-18T11:38:06;-1.80;99.90
1880;DHT22;49285;49.002;8.390;2022-12-18T11:40:37;-1.70;99.90
1880;DHT22;49285;49.002;8.390;2022-12-18T11:43:16;-1.50;99.90
1880;DHT22;49285;49.002;8.390;2022-12-18T11:49:03;-1.40;99.90
1880;DHT22;49285;49.002;8.390;2022-12-18T11:51:41;-1.30;99.90
1880;DHT22;49285;49.002;8.390;2022-12-18T11:54:16;-1.30;99.90
1880;DHT22;49285;49.002;8.390;2022-12-18T11:56:58;-1.40;99.90
1880;DHT22;49285;49.002;8.390;2022-12-18T11:59:42;-1.30;99.90
1880;DHT22;49285;49.002;8.390;2022-12-18T12:02:33;-1.30;99.90
1880;DHT22;49285;49.002;8.390;2022-12-18T12:13:29;-1.00;99.90
1880;DHT22;49285;49.002;8.390;2022-12-18T12:16:03;-0.90;99.90
1880;DHT22;49285;49.002;8.390;2022-12-18T12:29:41;-0.30;99.90
1880;DHT22;49285;49.002;8.390;2022-12-18T12:38:10;0.00;99.90
1880;DHT22;49285;49.002;8.390;2022-12-18T12:40:56;0.10;99.90
1880;DHT22;49285;49.002;8.390;2022-12-18T12:43:40;0.10;99.90
1880;DHT22;49285;49.002;8.390;2022-12-18T12:46:09;0.10;99.90
1880;DHT22;49285;49.002;8.390;2022-12-18T12:53:39;0.50;99.90
1880;DHT22;49285;49.002;8.390;2022-12-18T12:56:09;0.70;99.90
1880;DHT22;49285;49.002;8.390;2022-12-18T13:06:40;1.00;99.90
1880;DHT22;49285;49.002;8.390;2022-12-18T13:09:07;1.00;99.90
1880;DHT22;49285;49.002;8.390;2022-12-18T13:11:42;1.00;99.90
1880;DHT22;49285;49.002;8.390;2022-12-18T13:20:08;0.90;99.90
1880;DHT22;49285;49.002;8.390;2022-12-18T13:22:37;0.90;99.90
1880;DHT22;49285;49.002;8.390;2022-12-18T13:25:26;0.90;99.90
1880;DHT22;49285;49.002;8.390;2022-12-18T13:28:13;0.90;99.90
1880;DHT22;49285;49.002;8.390;2022-12-18T13:30:44;0.90;99.90
1880;DHT22;49285;49.002;8.390;2022-12-18T13:45:49;0.80;99.90
1880;DHT22;49285;49.002;8.390;2022-12-18T13:48:25;0.70;99.90
1880;DHT22;49285;49.002;8.390;2022-12-18T13:51:03;0.80;99.90
1880;DHT22;49285;49.002;8.390;2022-12-18T13:53:36;0.80;99.90
1880;DHT22;49285;49.002;8.390;2022-12-18T13:56:04;0.80;99.90
1880;DHT22;49285;49.002;8.390;2022-12-18T13:58:30;0.70;99.90
1880;DHT22;49285;49.002;8.390;2022-12-18T14:00:56;0.70;99.90
1880;DHT22;49285;49.002;8.390;2022-12-18T14:03:26;0.70;99.90
1880;DHT22;49285;49.002;8.390;2022-12-18T14:06:04;0.70;99.90
1880;DHT22;49285;49.002;8.390;2022-12-18T14:08:39;0.70;99.90
1880;DHT22;49285;49.002;8.390;2022-12-18T14:11:07;0.60;99.90
1880;DHT22;49285;49.002;8.390;2022-12-18T14:13:36;0.60;99.90
1880;DHT22;49285;49.002;8.390;2022-12-18T14:16:04;0.50;99.90
1880;DHT22;49285;49.002;8.390;2022-12-18T14:18:55;0.50;99.90
1880;DHT22;49285;49.002;8.390;2022-12-18T14:21:26;0.50;99.90
1880;DHT22;49285;49.002;8.390;2022-12-18T14:24:17;0.40;99.90
1880;DHT22;49285;49.002;8.390;2022-12-18T14:26:44;0.40;99.90
1880;DHT22;49285;49.002;8.390;2022-12-18T14:29:28;0.30;99.90
1880;DHT22;49285;49.002;8.390;2022-12-18T14:32:11;0.30;99.90
1880;DHT22;49285;49.002;8.390;2022-12-18T14:34:39;0.20;99.90
1880;DHT22;49285;49.002;8.390;2022-12-18T14:37:05;0.10;99.90
1880;DHT22;49285;49.002;8.390;2022-12-18T14:39:32;0.10;99.90
1880;DHT22;49285;49.002;8.390;2022-12-18T14:41:57;0.10;99.90
1880;DHT22;49285;49.002;8.390;2022-12-18T14:44:23;0.10;99.90
1880;DHT22;49285;49.002;8.390;2022-12-18T14:46:50;0.10;99.90
1880;DHT22;49285;49.002;8.390;2022-12-18T14:49:33;0.00;99.90
1880;DHT22;49285;49.002;8.390;2022-12-18T14:52:06;0.00;99.90
1880;DHT22;49285;49.002;8.390;2022-12-18T14:54:39;0.00;99.90
1880;DHT22;49285;49.002;8.390;2022-12-18T14:57:24;0.00;99.90
1880;DHT22;49285;49.002;8.390;2022-12-18T14:59:51;-0.10;99.90
1880;DHT22;49285;49.002;8.390;2022-12-18T15:04:42;-0.10;99.90
1880;DHT22;49285;49.002;8.390;2022-12-18T15:07:17;-0.20;99.90
1880;DHT22;49285;49.002;8.390;2022-12-18T15:15:00;-0.20;99.90
1880;DHT22;49285;49.002;8.390;2022-12-18T15:17:25;-0.30;99.90
1880;DHT22;49285;49.002;8.390;2022-12-18T15:19:59;-0.30;99.90
1880;DHT22;49285;49.002;8.390;2022-12-18T15:22:31;-0.40;99.90
1880;DHT22;49285;49.002;8.390;2022-12-18T15:24:59;-0.50;99.90
1880;DHT22;49285;49.002;8.390;2022-12-18T15:27:35;-0.50;99.90
1880;DHT22;49285;49.002;8.390;2022-12-18T15:32:37;-0.50;99.90
1880;DHT22;49285;49.002;8.390;2022-12-18T15:35:12;-0.60;99.90
1880;DHT22;49285;49.002;8.390;2022-12-18T15:37:38;-0.60;99.90
1880;DHT22;49285;49.002;8.390;2022-12-18T15:40:04;-0.60;99.90
1880;DHT22;49285;49.002;8.390;2022-12-18T15:42:30;-0.60;99.90
1880;DHT22;49285;49.002;8.390;2022-12-18T15:45:14;-0.60;99.90
1880;DHT22;49285;49.002;8.390;2022-12-18T15:47:40;-0.70;99.90
1880;DHT22;49285;49.002;8.390;2022-12-18T15:50:09;-0.70;99.90
1880;DHT22;49285;49.002;8.390;2022-12-18T15:52:44;-0.70;99.90
1880;DHT22;49285;49.002;8.390;2022-12-18T15:55:13;-0.70;99.90
1880;DHT22;49285;49.002;8.390;2022-12-18T15:57:57;-0.80;99.90
1880;DHT22;49285;49.002;8.390;2022-12-18T16:00:23;-0.80;99.90
1880;DHT22;49285;49.002;8.390;2022-12-18T16:02:48;-0.80;99.90
1880;DHT22;49285;49.002;8.390;2022-12-18T16:05:16;-0.70;99.90
1880;DHT22;49285;49.002;8.390;2022-12-18T16:07:42;-0.70;99.90
1880;DHT22;49285;49.002;8.390;2022-12-18T16:10:09;-0.80;99.90
1880;DHT22;49285;49.002;8.390;2022-12-18T16:12:34;-0.70;99.90
1880;DHT22;49285;49.002;8.390;2022-12-18T16:15:00;-0.80;99.90
1880;DHT22;49285;49.002;8.390;2022-12-18T16:17:26;-0.70;99.90
1880;DHT22;49285;49.002;8.390;2022-12-18T16:19:51;-0.70;99.90
1880;DHT22;49285;49.002;8.390;2022-12-18T16:22:20;-0.80;99.90
1880;DHT22;49285;49.002;8.390;2022-12-18T16:24:47;-0.80;99.90
1880;DHT22;49285;49.002;8.390;2022-12-18T16:27:12;-0.80;99.90
1880;DHT22;49285;49.002;8.390;2022-12-18T16:29:38;-0.70;99.90
1880;DHT22;49285;49.002;8.390;2022-12-18T16:32:03;-0.70;99.90
1880;DHT22;49285;49.002;8.390;2022-12-18T16:34:31;-0.60;99.90
1880;DHT22;49285;49.002;8.390;2022-12-18T16:37:03;-0.70;99.90
1880;DHT22;49285;49.002;8.390;2022-12-18T16:39:29;-0.80;99.90
1880;DHT22;49285;49.002;8.390;2022-12-18T16:41:59;-1.00;99.90
1880;DHT22;49285;49.002;8.390;2022-12-18T16:44:25;-1.10;99.90
1880;DHT22;49285;49.002;8.390;2022-12-18T16:46:51;-1.20;99.90
1880;DHT22;49285;49.002;8.390;2022-12-18T16:49:17;-1.40;99.90
1880;DHT22;49285;49.002;8.390;2022-12-18T16:51:45;-1.30;99.90
1880;DHT22;49285;49.002;8.390;2022-12-18T16:54:11;-1.10;99.90
1880;DHT22;49285;49.002;8.390;2022-12-18T16:56:37;-1.10;99.90
1880;DHT22;49285;49.002;8.390;2022-12-18T16:59:03;-1.10;99.90
1880;DHT22;49285;49.002;8.390;2022-12-18T17:01:31;-1.10;99.90
1880;DHT22;49285;49.002;8.390;2022-12-18T17:03:59;-1.10;99.90
1880;DHT22;49285;49.002;8.390;2022-12-18T17:06:26;-1.20;99.90
1880;DHT22;49285;49.002;8.390;2022-12-18T17:09:05;-1.10;99.90
1880;DHT22;49285;49.002;8.390;2022-12-18T17:11:33;-1.20;99.90
1880;DHT22;49285;49.002;8.390;2022-12-18T17:13:59;-1.20;99.90
1880;DHT22;49285;49.002;8.390;2022-12-18T17:16:25;-1.20;99.90
1880;DHT22;49285;49.002;8.390;2022-12-18T17:18:52;-1.40;99.90
1880;DHT22;49285;49.002;8.390;2022-12-18T17:21:18;-1.30;99.90
1880;DHT22;49285;49.002;8.390;2022-12-18T17:23:44;-1.50;99.90
1880;DHT22;49285;49.002;8.390;2022-12-18T17:26:10;-1.50;99.90
1880;DHT22;49285;49.002;8.390;2022-12-18T17:28:38;-1.50;99.90
1880;DHT22;49285;49.002;8.390;2022-12-18T17:31:11;-1.60;99.90
1880;DHT22;49285;49.002;8.390;2022-12-18T17:33:37;-1.60;99.90
1880;DHT22;49285;49.002;8.390;2022-12-18T17:36:03;-1.60;99.90
1880;DHT22;49285;49.002;8.390;2022-12-18T17:38:28;-1.50;99.90
1880;DHT22;49285;49.002;8.390;2022-12-18T17:41:02;-1.60;99.90
1880;DHT22;49285;49.002;8.390;2022-12-18T17:43:29;-1.60;99.90
1880;DHT22;49285;49.002;8.390;2022-12-18T17:45:55;-1.60;99.90
1880;DHT22;49285;49.002;8.390;2022-12-18T17:48:20;-1.40;99.90
1880;DHT22;49285;49.002;8.390;2022-12-18T17:50:46;-1.40;99.90
1880;DHT22;49285;49.002;8.390;2022-12-18T17:53:12;-1.50;99.90
1880;DHT22;49285;49.002;8.390;2022-12-18T17:55:37;-1.60;99.90